createdAt,value
2018-04-01T00:01:09.272Z,90.50
2018-04-01T00:03:37.088Z,90.60
2018-04-01T00:06:04.883Z,90.70
2018-04-01T00:08:32.696Z,90.50
2018-04-01T00:11:00.483Z,90.50
2018-04-01T00:13:28.305Z,90.50
2018-04-01T00:15:56.124Z,90.90
2018-04-01T00:18:23.944Z,90.50
2018-04-01T00:20:51.742Z,90.40
2018-04-01T00:23:19.560Z,90.40
2018-04-01T00:25:47.361Z,90.30
2018-04-01T00:28:15.189Z,90.60
2018-04-01T00:30:42.980Z,90.40
2018-04-01T00:33:10.793Z,90.50
2018-04-01T00:35:38.618Z,90.50
2018-04-01T00:38:06.411Z,90.50
2018-04-01T00:40:34.231Z,90.60
2018-04-01T00:43:02.022Z,90.70
2018-04-01T00:45:29.076Z,90.70
2018-04-01T00:47:56.886Z,90.70
2018-04-01T00:50:24.708Z,90.80
2018-04-01T00:52:52.504Z,90.70
2018-04-01T00:55:20.337Z,90.60
2018-04-01T00:57:48.139Z,90.70
2018-04-01T01:00:15.966Z,90.70
2018-04-01T01:02:43.764Z,90.80
2018-04-01T01:05:11.580Z,90.80
2018-04-01T01:07:39.408Z,90.80
2018-04-01T01:10:07.229Z,90.90
2018-04-01T01:12:35.034Z,91.00
2018-04-01T01:15:02.857Z,91.00
2018-04-01T01:17:30.663Z,91.10
2018-04-01T01:19:58.494Z,91.00
2018-04-01T01:22:26.292Z,91.20
2018-04-01T01:24:54.107Z,91.20
2018-04-01T01:27:21.908Z,91.20
2018-04-01T01:29:49.744Z,91.20
2018-04-01T01:32:17.544Z,91.20
2018-04-01T01:34:45.360Z,91.20
2018-04-01T01:37:13.158Z,91.20
2018-04-01T01:39:40.976Z,91.20
2018-04-01T01:42:08.784Z,91.20
2018-04-01T01:44:36.604Z,91.10
2018-04-01T01:47:04.405Z,91.10
2018-04-01T01:49:32.228Z,91.00
2018-04-01T01:52:00.025Z,91.00
2018-04-01T01:54:27.854Z,91.30
2018-04-01T01:56:55.656Z,91.00
2018-04-01T01:59:23.481Z,91.00
2018-04-01T02:01:51.281Z,90.90
2018-04-01T02:04:19.100Z,90.90
2018-04-01T02:06:46.896Z,90.90
2018-04-01T02:09:14.708Z,90.80
2018-04-01T02:11:42.497Z,90.70
2018-04-01T02:14:10.301Z,90.70
2018-04-01T02:16:38.132Z,90.80
2018-04-01T02:19:05.929Z,90.70
2018-04-01T02:21:33.757Z,90.80
2018-04-01T02:24:01.564Z,91.20
2018-04-01T02:26:29.386Z,90.80
2018-04-01T02:28:57.194Z,90.90
2018-04-01T02:31:25.083Z,90.90
2018-04-01T02:33:52.826Z,90.90
2018-04-01T02:36:20.648Z,90.90
2018-04-01T02:38:48.443Z,90.90
2018-04-01T02:41:16.264Z,90.90
2018-04-01T02:43:44.065Z,90.80
2018-04-01T02:46:11.906Z,90.80
2018-04-01T02:48:39.716Z,91.00
2018-04-01T02:51:07.546Z,91.00
2018-04-01T02:53:35.345Z,91.30
2018-04-01T02:56:03.168Z,91.00
2018-04-01T02:58:30.983Z,91.00
2018-04-01T03:00:58.816Z,91.10
2018-04-01T03:03:26.634Z,91.30
2018-04-01T03:05:54.464Z,91.60
2018-04-01T03:08:22.288Z,91.80
2018-04-01T03:10:50.119Z,92.00
2018-04-01T03:13:17.924Z,92.20
2018-04-01T03:15:45.720Z,92.20
2018-04-01T03:18:13.544Z,92.10
2018-04-01T03:20:41.346Z,92.00
2018-04-01T03:23:09.165Z,91.90
2018-04-01T03:25:36.960Z,91.80
2018-04-01T03:28:04.783Z,91.60
2018-04-01T03:30:32.593Z,91.80
2018-04-01T03:33:00.415Z,91.40
2018-04-01T03:35:28.228Z,91.30
2018-04-01T03:37:56.073Z,91.30
2018-04-01T03:40:23.876Z,91.20
2018-04-01T03:42:51.668Z,91.10
2018-04-01T03:45:19.500Z,91.00
2018-04-01T03:47:47.308Z,91.00
2018-04-01T03:50:15.129Z,90.60
2018-04-01T03:52:42.935Z,90.90
2018-04-01T03:55:10.758Z,90.80
2018-04-01T03:57:38.564Z,90.70
2018-04-01T04:00:06.389Z,90.70
2018-04-01T04:02:34.200Z,90.70
2018-04-01T04:05:02.017Z,90.70
2018-04-01T04:07:29.056Z,90.60
2018-04-01T04:09:56.880Z,90.70
2018-04-01T04:12:24.689Z,90.60
2018-04-01T04:14:52.501Z,90.60
2018-04-01T04:17:20.326Z,90.70
2018-04-01T04:19:48.127Z,90.80
2018-04-01T04:22:15.962Z,90.90
2018-04-01T04:24:43.017Z,90.90
2018-04-01T04:27:10.847Z,91.00
2018-04-01T04:29:38.655Z,90.90
2018-04-01T04:32:06.475Z,90.80
2018-04-01T04:34:34.280Z,90.60
2018-04-01T04:37:02.114Z,90.60
2018-04-01T04:39:29.916Z,90.50
2018-04-01T04:41:57.768Z,90.40
2018-04-01T04:44:25.569Z,90.40
2018-04-01T04:46:53.850Z,90.40
2018-04-01T04:49:21.661Z,90.40
2018-04-01T04:51:49.476Z,90.40
2018-04-01T04:54:17.281Z,90.40
2018-04-01T04:56:45.109Z,90.40
2018-04-01T04:59:12.925Z,90.40
2018-04-01T05:01:40.744Z,90.40
2018-04-01T05:04:08.548Z,90.40
2018-04-01T05:06:36.369Z,90.40
2018-04-01T05:09:03.632Z,90.40
2018-04-01T05:11:31.460Z,90.60
2018-04-01T05:13:59.276Z,90.70
2018-04-01T05:16:27.100Z,90.80
2018-04-01T05:18:54.909Z,90.90
2018-04-01T05:21:22.753Z,91.00
2018-04-01T05:23:50.566Z,91.10
2018-04-01T05:26:18.392Z,91.10
2018-04-01T05:28:46.197Z,91.10
2018-04-01T05:31:14.001Z,91.20
2018-04-01T05:33:41.830Z,91.20
2018-04-01T05:36:09.629Z,91.20
2018-04-01T05:38:37.465Z,91.10
2018-04-01T05:41:05.274Z,91.20
2018-04-01T05:43:33.100Z,91.00
2018-04-01T05:46:00.908Z,90.90
2018-04-01T05:48:28.746Z,90.90
2018-04-01T05:50:56.944Z,90.90
2018-04-01T05:53:24.804Z,90.80
2018-04-01T05:55:52.632Z,90.60
2018-04-01T05:58:20.472Z,90.60
2018-04-01T06:00:48.284Z,90.70
2018-04-01T06:03:16.119Z,90.70
2018-04-01T06:05:43.926Z,90.70
2018-04-01T06:08:10.980Z,90.70
2018-04-01T06:10:38.792Z,90.40
2018-04-01T06:13:06.616Z,90.40
2018-04-01T06:15:34.420Z,90.20
2018-04-01T06:18:02.267Z,90.20
2018-04-01T06:20:30.077Z,90.20
2018-04-01T06:22:57.135Z,90.20
2018-04-01T06:25:24.945Z,90.30
2018-04-01T06:27:52.823Z,90.30
2018-04-01T06:30:20.621Z,90.40
2018-04-01T06:32:48.452Z,90.30
2018-04-01T06:35:16.262Z,90.20
2018-04-01T06:37:44.099Z,90.10
2018-04-01T06:40:11.908Z,90.00
2018-04-01T06:42:39.759Z,89.60
2018-04-01T06:45:07.565Z,89.40
2018-04-01T06:47:35.391Z,89.00
2018-04-01T06:50:03.197Z,88.20
2018-04-01T06:52:31.028Z,88.10
2018-04-01T06:54:58.828Z,88.00
2018-04-01T06:57:26.666Z,87.50
2018-04-01T06:59:54.481Z,86.60
2018-04-01T07:02:22.322Z,86.70
2018-04-01T07:04:50.130Z,86.50
2018-04-01T07:07:17.971Z,86.70
2018-04-01T07:09:45.772Z,86.90
2018-04-01T07:12:13.582Z,86.90
2018-04-01T07:14:41.421Z,86.80
2018-04-01T07:17:09.228Z,86.80
2018-04-01T07:19:37.061Z,86.70
2018-04-01T07:22:04.877Z,86.30
2018-04-01T07:24:32.708Z,85.50
2018-04-01T07:27:00.510Z,85.20
2018-04-01T07:29:28.332Z,84.50
2018-04-01T07:31:56.132Z,84.30
2018-04-01T07:34:23.193Z,84.30
2018-04-01T07:36:51.012Z,84.60
2018-04-01T07:39:18.840Z,84.90
2018-04-01T07:41:46.648Z,85.30
2018-04-01T07:44:14.474Z,85.30
2018-04-01T07:46:42.276Z,85.40
2018-04-01T07:49:10.437Z,85.10
2018-04-01T07:51:37.469Z,85.10
2018-04-01T07:54:05.295Z,84.60
2018-04-01T07:56:33.096Z,84.40
2018-04-01T07:59:00.911Z,84.50
2018-04-01T08:01:28.712Z,84.50
2018-04-01T08:03:56.532Z,84.70
2018-04-01T08:06:24.340Z,84.10
2018-04-01T08:08:52.156Z,83.00
2018-04-01T08:11:19.976Z,82.10
2018-04-01T08:13:47.803Z,80.10
2018-04-01T08:16:14.843Z,80.10
2018-04-01T08:18:42.672Z,78.50
2018-04-01T08:21:10.478Z,78.50
2018-04-01T08:23:38.319Z,79.20
2018-04-01T08:26:06.128Z,79.10
2018-04-01T08:28:33.972Z,78.90
2018-04-01T08:31:01.782Z,78.70
2018-04-01T08:33:29.605Z,79.70
2018-04-01T08:35:56.645Z,79.60
2018-04-01T08:38:24.476Z,79.90
2018-04-01T08:40:52.280Z,80.10
2018-04-01T08:43:19.341Z,80.10
2018-04-01T08:45:47.149Z,78.80
2018-04-01T08:48:14.962Z,78.60
2018-04-01T08:50:42.794Z,78.00
2018-04-01T08:53:10.668Z,77.60
2018-04-01T08:55:38.453Z,77.00
2018-04-01T08:58:06.265Z,75.60
2018-04-01T09:00:34.089Z,75.20
2018-04-01T09:03:01.898Z,74.90
2018-04-01T09:05:29.716Z,74.00
2018-04-01T09:07:57.541Z,73.50
2018-04-01T09:10:25.401Z,72.70
2018-04-01T09:12:53.212Z,72.20
2018-04-01T09:15:21.037Z,72.80
2018-04-01T09:17:48.076Z,72.80
2018-04-01T09:20:15.907Z,69.60
2018-04-01T09:22:43.730Z,70.10
2018-04-01T09:25:11.557Z,70.60
2018-04-01T09:27:39.363Z,69.60
2018-04-01T09:30:07.187Z,68.00
2018-04-01T09:32:34.997Z,67.20
2018-04-01T09:35:02.829Z,68.00
2018-04-01T09:37:30.656Z,67.40
2018-04-01T09:39:58.485Z,66.40
2018-04-01T09:42:26.285Z,66.30
2018-04-01T09:44:54.104Z,63.30
2018-04-01T09:47:21.921Z,63.30
2018-04-01T09:49:49.747Z,63.20
2018-04-01T09:52:17.548Z,63.30
2018-04-01T09:54:45.375Z,64.00
2018-04-01T09:57:12.412Z,64.00
2018-04-01T09:59:40.233Z,64.60
2018-04-01T10:02:08.544Z,64.60
2018-04-01T10:04:36.856Z,65.50
2018-04-01T10:07:05.148Z,66.50
2018-04-01T10:09:33.463Z,67.20
2018-04-01T10:12:01.766Z,67.40
2018-04-01T10:14:30.080Z,67.80
2018-04-01T10:16:57.620Z,67.70
2018-04-01T10:19:25.937Z,67.60
2018-04-01T10:21:54.228Z,67.90
2018-04-01T10:24:22.544Z,68.20
2018-04-01T10:26:50.068Z,68.10
2018-04-01T10:29:18.368Z,66.70
2018-04-01T10:31:46.684Z,67.30
2018-04-01T10:34:14.988Z,68.00
2018-04-01T10:36:43.328Z,68.20
2018-04-01T10:39:11.624Z,68.40
2018-04-01T10:41:39.976Z,69.40
2018-04-01T10:44:08.276Z,69.60
2018-04-01T10:46:36.592Z,68.90
2018-04-01T10:49:05.728Z,67.70
2018-04-01T10:51:34.064Z,67.60
2018-04-01T10:54:01.878Z,69.10
2018-04-01T10:56:29.720Z,70.20
2018-04-01T10:58:57.536Z,70.20
2018-04-01T11:01:25.377Z,70.10
2018-04-01T11:03:53.194Z,69.70
2018-04-01T11:06:21.040Z,69.90
2018-04-01T11:08:48.853Z,70.70
2018-04-01T11:11:16.689Z,70.60
2018-04-01T11:13:44.502Z,69.80
2018-04-01T11:16:12.336Z,69.00
2018-04-01T11:18:40.170Z,68.20
2018-04-01T11:21:07.996Z,68.60
2018-04-01T11:23:35.826Z,68.20
2018-04-01T11:26:03.728Z,66.10
2018-04-01T11:28:31.517Z,65.10
2018-04-01T11:30:59.373Z,64.00
2018-04-01T11:33:27.197Z,64.00
2018-04-01T11:35:55.976Z,61.30
2018-04-01T11:38:23.126Z,61.30
2018-04-01T11:40:50.958Z,59.90
2018-04-01T11:43:19.621Z,59.60
2018-04-01T11:45:47.468Z,58.50
2018-04-01T11:48:15.276Z,56.50
2018-04-01T11:50:43.116Z,55.60
2018-04-01T11:53:10.930Z,55.10
2018-04-01T11:55:38.764Z,55.80
2018-04-01T11:58:06.564Z,55.60
2018-04-01T12:00:34.392Z,55.60
2018-04-01T12:03:02.206Z,55.80
2018-04-01T12:05:30.034Z,57.90
2018-04-01T12:07:57.860Z,59.00
2018-04-01T12:10:25.677Z,59.70
2018-04-01T12:12:53.499Z,63.10
2018-04-01T12:15:21.292Z,62.60
2018-04-01T12:17:49.120Z,63.80
2018-04-01T12:20:16.920Z,64.80
2018-04-01T12:22:44.764Z,65.10
2018-04-01T12:25:11.804Z,65.10
2018-04-01T12:27:39.648Z,65.40
2018-04-01T12:30:07.469Z,64.50
2018-04-01T12:32:35.288Z,64.40
2018-04-01T12:35:03.100Z,62.10
2018-04-01T12:37:30.941Z,60.60
2018-04-01T12:39:58.744Z,60.80
2018-04-01T12:42:26.588Z,60.50
2018-04-01T12:44:54.396Z,59.80
2018-04-01T12:47:22.224Z,59.90
2018-04-01T12:49:50.030Z,59.70
2018-04-01T12:52:17.866Z,58.60
2018-04-01T12:54:45.688Z,58.90
2018-04-01T12:57:13.529Z,59.80
2018-04-01T12:59:41.341Z,60.00
2018-04-01T13:02:09.169Z,60.40
2018-04-01T13:04:36.976Z,59.90
2018-04-01T13:07:04.808Z,59.90
2018-04-01T13:09:32.613Z,59.50
2018-04-01T13:12:00.440Z,59.30
2018-04-01T13:14:28.256Z,59.00
2018-04-01T13:16:56.084Z,59.00
2018-04-01T13:19:23.926Z,59.30
2018-04-01T13:21:51.736Z,58.90
2018-04-01T13:24:19.541Z,58.40
2018-04-01T13:26:47.370Z,58.10
2018-04-01T13:29:15.173Z,58.00
2018-04-01T13:31:43.003Z,56.20
2018-04-01T13:34:10.809Z,55.80
2018-04-01T13:36:37.878Z,55.80
2018-04-01T13:39:05.698Z,54.10
2018-04-01T13:41:33.503Z,51.70
2018-04-01T13:44:01.324Z,52.20
2018-04-01T13:46:30.068Z,53.10
2018-04-01T13:48:57.153Z,53.10
2018-04-01T13:51:24.961Z,54.00
2018-04-01T13:53:52.992Z,53.60
2018-04-01T13:56:20.800Z,52.70
2018-04-01T13:58:48.673Z,52.50
2018-04-01T14:01:16.569Z,52.40
2018-04-01T14:03:44.405Z,52.50
2018-04-01T14:06:12.301Z,52.50
2018-04-01T14:08:39.373Z,53.00
2018-04-01T14:11:07.181Z,54.10
2018-04-01T14:13:35.022Z,55.00
2018-04-01T14:16:02.059Z,55.00
2018-04-01T14:18:29.121Z,56.20
2018-04-01T14:20:56.928Z,58.30
2018-04-01T14:23:24.757Z,59.30
2018-04-01T14:25:52.559Z,59.40
2018-04-01T14:28:20.388Z,59.10
2018-04-01T14:30:48.192Z,59.20
2018-04-01T14:33:16.078Z,59.50
2018-04-01T14:35:43.836Z,60.10
2018-04-01T14:38:11.668Z,61.20
2018-04-01T14:40:39.485Z,61.80
2018-04-01T14:43:07.317Z,62.30
2018-04-01T14:45:35.116Z,63.20
2018-04-01T14:48:02.948Z,63.80
2018-04-01T14:50:30.748Z,64.50
2018-04-01T14:52:58.576Z,65.00
2018-04-01T14:55:25.617Z,64.90
2018-04-01T14:57:52.671Z,66.00
2018-04-01T15:00:20.488Z,68.40
2018-04-01T15:02:47.608Z,68.40
2018-04-01T15:05:15.376Z,69.60
2018-04-01T15:07:43.209Z,69.70
2018-04-01T15:10:11.024Z,70.40
2018-04-01T15:12:38.859Z,70.50
2018-04-01T15:15:06.769Z,71.00
2018-04-01T15:17:33.813Z,70.90
2018-04-01T15:20:01.659Z,71.00
2018-04-01T15:22:29.464Z,70.50
2018-04-01T15:24:57.295Z,70.50
2018-04-01T15:27:25.109Z,70.50
2018-04-01T15:29:52.949Z,70.20
2018-04-01T15:32:20.769Z,70.50
2018-04-01T15:34:48.595Z,70.20
2018-04-01T15:37:16.406Z,70.80
2018-04-01T15:39:44.260Z,71.20
2018-04-01T15:42:12.068Z,70.90
2018-04-01T15:44:40.272Z,71.20
2018-04-01T15:47:08.081Z,72.70
2018-04-01T15:49:35.910Z,72.20
2018-04-01T15:52:03.787Z,72.20
2018-04-01T15:54:31.613Z,72.70
2018-04-01T15:56:59.502Z,72.80
2018-04-01T15:59:27.440Z,73.00
2018-04-01T16:01:55.244Z,73.30
2018-04-01T16:04:23.073Z,72.80
2018-04-01T16:06:50.884Z,72.40
2018-04-01T16:09:18.740Z,72.70
2018-04-01T16:11:46.604Z,73.10
2018-04-01T16:14:14.460Z,73.00
2018-04-01T16:16:42.263Z,73.20
2018-04-01T16:19:10.153Z,72.90
2018-04-01T16:21:37.937Z,73.10
2018-04-01T16:24:05.868Z,73.30
2018-04-01T16:26:34.548Z,73.30
2018-04-01T16:29:02.382Z,73.40
2018-04-01T16:31:30.209Z,73.20
2018-04-01T16:33:58.036Z,74.10
2018-04-01T16:36:25.914Z,73.40
2018-04-01T16:38:53.752Z,73.50
2018-04-01T16:41:21.563Z,73.50
2018-04-01T16:43:49.404Z,73.10
2018-04-01T16:46:17.262Z,72.70
2018-04-01T16:48:44.288Z,72.70
2018-04-01T16:51:12.116Z,73.10
2018-04-01T16:53:39.956Z,73.50
2018-04-01T16:56:07.784Z,73.60
2018-04-01T16:58:34.838Z,73.60
2018-04-01T17:01:02.673Z,74.10
2018-04-01T17:03:30.492Z,74.40
2018-04-01T17:05:58.328Z,74.70
2018-04-01T17:08:26.225Z,75.10
2018-04-01T17:10:54.053Z,75.50
2018-04-01T17:13:21.893Z,76.00
2018-04-01T17:15:49.832Z,76.40
2018-04-01T17:18:17.645Z,76.20
2018-04-01T17:20:45.472Z,76.60
2018-04-01T17:23:13.282Z,76.50
2018-04-01T17:25:41.134Z,77.10
2018-04-01T17:28:08.948Z,77.10
2018-04-01T17:30:36.782Z,77.80
2018-04-01T17:33:04.668Z,77.90
2018-04-01T17:35:32.510Z,78.10
2018-04-01T17:37:59.553Z,78.00
2018-04-01T17:40:27.407Z,77.70
2018-04-01T17:42:55.244Z,77.60
2018-04-01T17:45:23.112Z,77.70
2018-04-01T17:47:51.011Z,77.90
2018-04-01T17:50:18.881Z,78.20
2018-04-01T17:52:46.689Z,78.40
2018-04-01T17:55:14.521Z,78.60
2018-04-01T17:57:42.337Z,78.40
2018-04-01T18:00:10.228Z,78.70
2018-04-01T18:02:38.061Z,78.80
2018-04-01T18:05:05.896Z,78.50
2018-04-01T18:07:32.950Z,78.50
2018-04-01T18:10:00.792Z,78.50
2018-04-01T18:12:28.613Z,78.50
2018-04-01T18:14:56.441Z,79.00
2018-04-01T18:17:24.248Z,80.10
2018-04-01T18:19:52.108Z,79.30
2018-04-01T18:22:20.076Z,79.40
2018-04-01T18:24:47.948Z,79.00
2018-04-01T18:27:15.777Z,79.00
2018-04-01T18:29:43.583Z,79.20
2018-04-01T18:32:11.420Z,79.40
2018-04-01T18:34:39.466Z,79.00
2018-04-01T18:37:07.917Z,79.10
2018-04-01T18:39:35.130Z,79.00
2018-04-01T18:42:03.079Z,79.00
2018-04-01T18:44:30.936Z,79.20
2018-04-01T18:46:58.764Z,79.50
2018-04-01T18:49:26.582Z,79.30
2018-04-01T18:51:54.413Z,79.20
2018-04-01T18:54:21.449Z,79.20
2018-04-01T18:56:49.290Z,79.20
2018-04-01T18:59:17.096Z,79.30
2018-04-01T19:01:44.916Z,79.40
2018-04-01T19:04:12.734Z,79.40
2018-04-01T19:06:40.562Z,79.60
2018-04-01T19:09:08.373Z,79.70
2018-04-01T19:11:36.248Z,79.90
2018-04-01T19:14:04.053Z,80.00
2018-04-01T19:16:32.432Z,80.00
2018-04-01T19:19:00.762Z,79.90
2018-04-01T19:21:29.188Z,80.10
2018-04-01T19:23:57.484Z,80.00
2018-04-01T19:26:25.804Z,80.30
2018-04-01T19:28:53.349Z,80.20
2018-04-01T19:31:21.681Z,80.20
2018-04-01T19:33:50.015Z,80.10
2018-04-01T19:36:18.369Z,80.30
2018-04-01T19:38:46.678Z,80.30
2018-04-01T19:41:15.120Z,80.40
2018-04-01T19:43:43.429Z,80.30
2018-04-01T19:46:11.753Z,80.30
2018-04-01T19:48:40.054Z,80.40
2018-04-01T19:51:08.376Z,80.50
2018-04-01T19:53:36.677Z,80.60
2018-04-01T19:56:04.992Z,80.60
2018-04-01T19:58:33.300Z,80.50
2018-04-01T20:01:01.624Z,80.30
2018-04-01T20:03:29.925Z,80.50
2018-04-01T20:05:58.264Z,80.50
2018-04-01T20:08:26.564Z,80.40
2018-04-01T20:10:54.892Z,80.50
2018-04-01T20:13:23.186Z,80.80
2018-04-01T20:15:51.481Z,80.70
2018-04-01T20:18:19.792Z,80.80
2018-04-01T20:20:48.137Z,82.00
2018-04-01T20:23:16.457Z,81.00
2018-04-01T20:25:44.753Z,81.20
2018-04-01T20:28:13.066Z,81.40
2018-04-01T20:30:41.364Z,81.30
2018-04-01T20:33:09.692Z,81.50
2018-04-01T20:35:37.994Z,81.80
2018-04-01T20:38:06.315Z,82.70
2018-04-01T20:40:34.613Z,82.20
2018-04-01T20:43:02.937Z,82.20
2018-04-01T20:45:31.233Z,82.20
2018-04-01T20:47:59.557Z,82.00
2018-04-01T20:50:27.862Z,82.10
2018-04-01T20:52:56.185Z,82.30
2018-04-01T20:55:24.491Z,82.50
2018-04-01T20:57:52.808Z,82.70
2018-04-01T21:00:21.102Z,82.90
2018-04-01T21:02:49.420Z,82.90
2018-04-01T21:05:17.721Z,82.80
2018-04-01T21:07:46.044Z,83.20
2018-04-01T21:10:14.336Z,83.00
2018-04-01T21:12:42.664Z,83.10
2018-04-01T21:15:10.965Z,83.10
2018-04-01T21:17:39.298Z,83.10
2018-04-01T21:20:07.596Z,83.30
2018-04-01T21:22:35.912Z,83.10
2018-04-01T21:25:04.208Z,83.20
2018-04-01T21:27:31.777Z,83.20
2018-04-01T21:30:00.077Z,83.30
2018-04-01T21:32:28.405Z,83.20
2018-04-01T21:34:56.708Z,83.30
2018-04-01T21:37:25.045Z,83.20
2018-04-01T21:39:53.340Z,83.30
2018-04-01T21:42:21.637Z,83.40
2018-04-01T21:44:49.201Z,83.40
2018-04-01T21:47:17.512Z,83.60
2018-04-01T21:49:45.836Z,83.80
2018-04-01T21:52:14.136Z,83.60
2018-04-01T21:54:42.458Z,83.70
2018-04-01T21:57:11.008Z,83.30
2018-04-01T21:59:39.351Z,83.30
2018-04-01T22:02:07.653Z,83.30
2018-04-01T22:04:35.972Z,83.30
2018-04-01T22:07:04.284Z,83.30
2018-04-01T22:09:32.608Z,83.40
2018-04-01T22:12:00.917Z,83.70
2018-04-01T22:14:29.237Z,84.00
2018-04-01T22:16:57.533Z,84.10
2018-04-01T22:19:25.857Z,84.20
2018-04-01T22:21:54.157Z,84.10
2018-04-01T22:24:22.472Z,84.20
2018-04-01T22:26:50.777Z,84.10
2018-04-01T22:29:19.101Z,84.10
2018-04-01T22:31:47.406Z,84.00
2018-04-01T22:34:15.724Z,84.10
2018-04-01T22:36:43.260Z,84.10
2018-04-01T22:39:11.582Z,84.50
2018-04-01T22:41:39.883Z,84.60
2018-04-01T22:44:08.208Z,84.80
2018-04-01T22:46:36.535Z,84.80
2018-04-01T22:49:05.424Z,85.20
2018-04-01T22:51:33.729Z,85.50
2018-04-01T22:54:02.056Z,85.80
2018-04-01T22:56:30.373Z,86.70
2018-04-01T22:58:58.692Z,85.90
2018-04-01T23:01:26.996Z,85.80
2018-04-01T23:03:55.315Z,85.80
2018-04-01T23:06:23.617Z,86.00
2018-04-01T23:08:51.936Z,86.00
2018-04-01T23:11:20.233Z,86.10
2018-04-01T23:13:48.561Z,86.20
2018-04-01T23:16:16.864Z,86.20
2018-04-01T23:18:45.157Z,86.50
2018-04-01T23:21:13.468Z,87.20
2018-04-01T23:23:41.766Z,87.50
2018-04-01T23:26:10.084Z,87.70
2018-04-01T23:28:38.392Z,87.80
2018-04-01T23:31:06.709Z,87.80
2018-04-01T23:33:35.006Z,87.80
2018-04-01T23:36:03.320Z,88.00
2018-04-01T23:38:31.613Z,88.10
2018-04-01T23:40:59.925Z,88.30
2018-04-01T23:43:28.221Z,88.30
2018-04-01T23:45:56.541Z,88.40
2018-04-01T23:48:24.844Z,88.80
2018-04-01T23:50:53.156Z,88.80
2018-04-01T23:53:21.456Z,88.70
2018-04-01T23:55:49.778Z,88.90
2018-04-01T23:58:18.075Z,89.00
